createdAt,value
2022-09-20T00:01:33.359Z,1.30
2022-09-20T00:04:05.767Z,4.60
2022-09-20T00:06:35.299Z,1.40
2022-09-20T00:09:05.362Z,2.10
2022-09-20T00:11:35.405Z,1.30
2022-09-20T00:14:06.284Z,1.80
2022-09-20T00:16:36.640Z,9.90
2022-09-20T00:19:05.636Z,3.90
2022-09-20T00:21:36.608Z,1.10
2022-09-20T00:24:06.062Z,1.40
2022-09-20T00:26:34.411Z,2.80
2022-09-20T00:29:02.575Z,3.50
2022-09-20T00:31:30.475Z,1.60
2022-09-20T00:34:17.194Z,3.80
2022-09-20T00:36:45.601Z,1.60
2022-09-20T00:39:15.759Z,2.40
2022-09-20T00:41:44.508Z,1.60
2022-09-20T00:44:49.940Z,4.60
2022-09-20T00:47:30.424Z,4.50
2022-09-20T00:50:23.249Z,2.50
2022-09-20T00:53:00.295Z,2.80
2022-09-20T00:55:29.151Z,2.70
2022-09-20T00:57:58.674Z,1.80
2022-09-20T01:00:27.979Z,1.80
2022-09-20T01:03:02.216Z,2.70
2022-09-20T01:05:30.379Z,1.90
2022-09-20T01:07:58.428Z,1.70
2022-09-20T01:10:26.556Z,1.90
2022-09-20T01:12:54.671Z,2.80
2022-09-20T01:15:25.470Z,2.40
2022-09-20T01:17:55.753Z,1.60
2022-09-20T01:20:26.416Z,1.70
2022-09-20T01:23:27.145Z,1.40
2022-09-20T01:26:03.701Z,1.60
2022-09-20T01:28:32.224Z,1.60
2022-09-20T01:31:13.897Z,1.50
2022-09-20T01:34:00.786Z,1.60
2022-09-20T01:36:36.758Z,2.40
2022-09-20T01:39:24.408Z,1.60
2022-09-20T01:41:59.442Z,3.70
2022-09-20T01:44:30.024Z,3.00
2022-09-20T01:47:06.954Z,1.60
2022-09-20T01:49:59.311Z,1.60
2022-09-20T01:52:49.169Z,3.90
2022-09-20T01:55:54.654Z,3.10
2022-09-20T01:59:24.024Z,1.50
2022-09-20T02:02:23.690Z,2.10
2022-09-20T02:05:10.283Z,2.60
2022-09-20T02:08:05.878Z,2.50
2022-09-20T02:10:55.234Z,2.10
2022-09-20T02:13:41.899Z,2.10
2022-09-20T02:16:45.102Z,1.40
2022-09-20T02:19:16.037Z,1.40
2022-09-20T02:21:55.100Z,2.00
2022-09-20T02:25:08.144Z,2.00
2022-09-20T02:27:54.099Z,1.70
2022-09-20T02:30:39.998Z,1.40
2022-09-20T02:33:38.034Z,2.10
2022-09-20T02:36:40.821Z,3.10
2022-09-20T02:39:24.324Z,3.70
2022-09-20T02:42:01.212Z,1.80
2022-09-20T02:44:50.690Z,2.70
2022-09-20T02:47:48.315Z,3.70
2022-09-20T02:50:16.082Z,1.70
2022-09-20T02:53:14.595Z,2.50
2022-09-20T02:55:56.383Z,2.20
2022-09-20T02:59:01.741Z,3.40
2022-09-20T03:01:41.354Z,2.20
2022-09-20T03:04:12.259Z,3.00
2022-09-20T03:06:51.159Z,5.60
2022-09-20T03:09:35.120Z,5.40
2022-09-20T03:12:18.120Z,2.40
2022-09-20T03:15:11.526Z,3.70
2022-09-20T03:17:47.667Z,3.20
2022-09-20T03:20:54.184Z,2.10
2022-09-20T03:23:25.004Z,3.70
2022-09-20T03:26:01.151Z,2.30
2022-09-20T03:28:51.535Z,3.70
2022-09-20T03:31:28.853Z,6.20
2022-09-20T03:34:38.728Z,3.00
2022-09-20T03:37:34.758Z,4.30
2022-09-20T03:40:44.170Z,3.40
2022-09-20T03:43:33.457Z,4.20
2022-09-20T03:46:22.590Z,3.10
2022-09-20T03:49:06.006Z,3.40
2022-09-20T03:51:56.356Z,2.20
2022-09-20T03:54:51.927Z,4.30
2022-09-20T03:57:42.666Z,8.80
2022-09-20T04:00:13.482Z,3.50
2022-09-20T04:03:05.650Z,3.90
2022-09-20T04:06:09.616Z,2.70
2022-09-20T04:09:00.531Z,3.50
2022-09-20T04:11:32.824Z,5.10
2022-09-20T04:14:40.383Z,6.50
2022-09-20T04:17:20.620Z,3.00
2022-09-20T04:20:31.924Z,4.40
2022-09-20T04:23:10.401Z,3.20
2022-09-20T04:25:44.672Z,6.00
2022-09-20T04:28:22.966Z,3.20
2022-09-20T04:30:56.959Z,4.40
2022-09-20T04:33:35.089Z,5.10
2022-09-20T04:36:30.151Z,3.50
2022-09-20T04:39:06.359Z,2.50
2022-09-20T04:41:50.785Z,2.80
2022-09-20T04:44:28.161Z,3.70
2022-09-20T04:47:08.384Z,3.70
2022-09-20T04:50:11.638Z,6.10
2022-09-20T04:53:10.463Z,3.00
2022-09-20T04:55:53.254Z,3.90
2022-09-20T04:58:27.276Z,3.50
2022-09-20T05:01:24.288Z,6.10
2022-09-20T05:04:26.180Z,7.30
2022-09-20T05:07:08.217Z,4.70
2022-09-20T05:09:54.572Z,3.50
2022-09-20T05:12:51.798Z,4.50
2022-09-20T05:15:46.462Z,4.80
2022-09-20T05:21:07.992Z,6.00
2022-09-20T05:23:44.980Z,6.00
2022-09-20T05:26:19.916Z,7.10
2022-09-20T05:29:14.487Z,6.30
2022-09-20T05:32:28.670Z,5.40
2022-09-20T05:35:18.979Z,6.30
2022-09-20T05:37:51.140Z,7.50
2022-09-20T05:40:40.838Z,8.00
2022-09-20T05:43:20.477Z,8.30
2022-09-20T05:46:04.272Z,5.40
2022-09-20T05:49:02.908Z,7.80
2022-09-20T05:51:55.036Z,5.00
2022-09-20T05:54:35.117Z,6.00
2022-09-20T05:57:21.534Z,6.00
2022-09-20T06:00:02.359Z,6.70
2022-09-20T06:02:51.537Z,5.70
2022-09-20T06:05:56.899Z,9.90
2022-09-20T06:08:46.240Z,7.10
2022-09-20T06:11:29.330Z,11.40
2022-09-20T06:14:16.587Z,9.00
2022-09-20T06:17:21.571Z,7.00
2022-09-20T06:19:58.764Z,7.30
2022-09-20T06:22:33.964Z,6.50
2022-09-20T06:25:15.393Z,7.90
2022-09-20T06:28:03.893Z,7.00
2022-09-20T06:30:36.490Z,6.30
2022-09-20T06:33:07.180Z,6.70
2022-09-20T06:35:44.111Z,7.50
2022-09-20T06:39:01.176Z,7.80
2022-09-20T06:41:33.730Z,6.10
2022-09-20T06:44:03.421Z,5.90
2022-09-20T06:46:34.513Z,7.70
2022-09-20T06:49:03.933Z,9.50
2022-09-20T06:51:36.947Z,9.90
2022-09-20T06:54:09.122Z,6.50
2022-09-20T06:56:37.116Z,8.10
2022-09-20T06:59:09.069Z,6.20
2022-09-20T07:01:37.502Z,7.40
2022-09-20T07:04:09.742Z,5.80
2022-09-20T07:06:37.675Z,7.60
2022-09-20T07:09:06.293Z,5.00
2022-09-20T07:11:35.162Z,9.00
2022-09-20T07:14:03.308Z,3.70
2022-09-20T07:16:31.637Z,4.50
2022-09-20T07:19:00.144Z,6.00
2022-09-20T07:21:27.932Z,4.80
2022-09-20T07:23:55.866Z,5.70
2022-09-20T07:26:27.169Z,6.00
2022-09-20T07:28:56.405Z,5.70
2022-09-20T07:31:26.806Z,5.60
2022-09-20T07:33:55.774Z,4.40
2022-09-20T07:36:23.824Z,7.00
2022-09-20T07:38:53.361Z,4.80
2022-09-20T07:41:24.268Z,3.90
2022-09-20T07:43:52.416Z,5.50
2022-09-20T07:46:22.350Z,4.70
2022-09-20T07:48:50.276Z,5.60
2022-09-20T07:51:18.067Z,3.40
2022-09-20T07:53:45.848Z,5.60
2022-09-20T07:56:18.464Z,5.60
2022-09-20T07:58:52.135Z,3.40
2022-09-20T08:01:22.884Z,6.00
2022-09-20T08:03:52.145Z,4.30
2022-09-20T08:06:21.510Z,4.30
2022-09-20T08:08:49.715Z,7.70
2022-09-20T08:11:20.188Z,5.00
2022-09-20T08:14:07.795Z,8.00
2022-09-20T08:16:43.405Z,3.20
2022-09-20T08:19:21.091Z,7.00
2022-09-20T08:21:50.788Z,5.50
2022-09-20T08:24:19.142Z,3.00
2022-09-20T08:26:48.485Z,4.70
2022-09-20T08:29:16.431Z,6.60
2022-09-20T08:31:44.655Z,3.00
2022-09-20T08:34:15.076Z,3.10
2022-09-20T08:36:46.827Z,4.00
2022-09-20T08:42:42.040Z,3.40
2022-09-20T08:45:34.398Z,5.80
2022-09-20T08:48:09.869Z,7.40
2022-09-20T08:50:37.620Z,4.20
2022-09-20T08:53:05.489Z,3.20
2022-09-20T08:55:37.644Z,2.90
2022-09-20T08:58:08.766Z,3.30
2022-09-20T09:00:39.578Z,2.20
2022-09-20T09:03:13.203Z,2.10
2022-09-20T09:05:52.856Z,2.30
2022-09-20T09:08:28.293Z,3.50
2022-09-20T09:10:59.453Z,2.30
2022-09-20T09:13:47.872Z,2.80
2022-09-20T09:16:23.170Z,2.70
2022-09-20T09:18:53.343Z,2.30
2022-09-20T09:21:27.909Z,2.40
2022-09-20T09:24:09.916Z,3.30
2022-09-20T09:26:40.134Z,2.80
2022-09-20T09:29:18.679Z,3.90
2022-09-20T09:31:49.558Z,3.50
2022-09-20T09:34:31.811Z,3.10
2022-09-20T09:36:59.721Z,4.80
2022-09-20T09:39:33.504Z,4.20
2022-09-20T09:42:20.580Z,3.00
2022-09-20T09:44:50.517Z,2.40
2022-09-20T09:47:29.431Z,3.50
2022-09-20T09:50:02.659Z,5.60
2022-09-20T09:52:34.149Z,3.20
2022-09-20T09:55:05.653Z,1.80
2022-09-20T09:57:55.344Z,1.60
2022-09-20T10:00:24.608Z,1.90
2022-09-20T10:03:41.721Z,2.70
2022-09-20T10:06:23.475Z,2.30
2022-09-20T10:09:01.797Z,1.60
2022-09-20T10:11:59.185Z,2.10
2022-09-20T10:15:16.614Z,1.60
2022-09-20T10:17:54.237Z,1.50
2022-09-20T10:21:14.977Z,1.50
2022-09-20T10:24:20.424Z,1.60
2022-09-20T10:27:09.910Z,1.70
2022-09-20T10:29:46.418Z,2.40
2022-09-20T10:32:39.595Z,2.00
2022-09-20T10:35:34.012Z,3.40
2022-09-20T10:38:15.797Z,4.00
2022-09-20T10:41:27.632Z,1.40
2022-09-20T10:44:07.393Z,2.30
2022-09-20T10:47:09.233Z,2.20
2022-09-20T10:49:50.755Z,1.40
2022-09-20T10:52:44.570Z,4.20
2022-09-20T10:55:34.816Z,2.80
2022-09-20T10:58:40.354Z,3.90
2022-09-20T11:01:19.310Z,1.70
2022-09-20T11:04:02.106Z,2.70
2022-09-20T11:06:51.167Z,1.50
2022-09-20T11:09:27.021Z,2.80
2022-09-20T11:12:25.111Z,1.50
2022-09-20T11:15:19.202Z,2.70
2022-09-20T11:18:13.214Z,1.40
2022-09-20T11:20:47.819Z,2.10
2022-09-20T11:23:51.118Z,2.20
2022-09-20T11:26:48.983Z,3.70
2022-09-20T11:29:38.245Z,1.50
2022-09-20T11:32:17.857Z,2.30
2022-09-20T11:35:11.686Z,1.60
2022-09-20T11:38:02.053Z,2.50
2022-09-20T11:40:38.667Z,4.40
2022-09-20T11:43:08.440Z,1.50
2022-09-20T11:45:39.080Z,1.70
2022-09-20T11:48:09.990Z,1.90
2022-09-20T11:50:57.306Z,2.80
2022-09-20T11:53:35.909Z,1.60
2022-09-20T11:56:27.895Z,1.90
2022-09-20T11:58:59.884Z,1.60
2022-09-20T12:01:31.965Z,1.70
2022-09-20T12:04:34.608Z,2.20
2022-09-20T12:07:18.714Z,1.90
2022-09-20T12:09:54.210Z,5.30
2022-09-20T12:12:45.607Z,3.50
2022-09-20T12:15:25.617Z,2.50
2022-09-20T12:17:53.359Z,2.80
2022-09-20T12:20:34.377Z,3.50
2022-09-20T12:23:40.553Z,2.00
2022-09-20T12:26:08.519Z,4.60
2022-09-20T12:28:57.478Z,2.90
2022-09-20T12:31:26.295Z,2.40
2022-09-20T12:34:15.979Z,1.50
2022-09-20T12:37:05.174Z,1.80
2022-09-20T12:39:40.220Z,2.60
2022-09-20T12:42:11.634Z,2.20
2022-09-20T12:44:51.945Z,2.40
2022-09-20T12:47:30.800Z,1.70
2022-09-20T12:50:19.702Z,1.20
2022-09-20T12:52:53.981Z,1.70
2022-09-20T12:55:28.109Z,1.50
2022-09-20T12:58:13.352Z,2.30
2022-09-20T13:00:47.225Z,2.10
2022-09-20T13:03:15.069Z,3.20
2022-09-20T13:05:45.963Z,2.90
2022-09-20T13:08:22.952Z,2.00
2022-09-20T13:10:59.488Z,1.90
2022-09-20T13:13:30.617Z,2.40
2022-09-20T13:16:01.337Z,2.30
2022-09-20T13:18:29.917Z,4.40
2022-09-20T13:21:01.217Z,2.00
2022-09-20T13:23:32.200Z,2.60
2022-09-20T13:26:02.470Z,2.40
2022-09-20T13:28:38.635Z,1.80
2022-09-20T13:31:26.652Z,3.20
2022-09-20T13:33:54.613Z,1.60
2022-09-20T13:36:27.772Z,2.10
2022-09-20T13:38:58.185Z,2.20
2022-09-20T13:41:29.300Z,2.30
2022-09-20T13:43:57.532Z,1.70
2022-09-20T13:46:43.091Z,1.50
2022-09-20T13:49:24.046Z,2.40
2022-09-20T13:51:52.199Z,2.10
2022-09-20T13:54:34.016Z,2.20
2022-09-20T13:57:16.310Z,3.10
2022-09-20T13:59:46.726Z,3.40
2022-09-20T14:02:34.490Z,1.60
2022-09-20T14:05:06.109Z,3.80
2022-09-20T14:07:36.888Z,1.90
2022-09-20T14:10:05.194Z,2.60
2022-09-20T14:12:34.137Z,8.30
2022-09-20T14:15:08.622Z,2.90
2022-09-20T14:17:37.167Z,3.10
2022-09-20T14:20:06.374Z,2.60
2022-09-20T14:22:34.307Z,1.70
2022-09-20T14:25:19.801Z,2.10
2022-09-20T14:27:47.851Z,3.30
2022-09-20T14:30:37.106Z,3.70
2022-09-20T14:33:14.793Z,2.30
2022-09-20T14:35:51.272Z,2.30
2022-09-20T14:38:24.547Z,10.30
2022-09-20T14:40:53.090Z,3.50
2022-09-20T14:43:34.902Z,3.20
2022-09-20T14:46:16.039Z,4.60
2022-09-20T14:48:45.631Z,1.80
2022-09-20T14:51:18.865Z,2.50
2022-09-20T14:53:49.726Z,5.40
2022-09-20T14:56:31.323Z,2.00
2022-09-20T14:59:05.776Z,2.30
2022-09-20T15:01:36.245Z,5.80
2022-09-20T15:04:21.659Z,5.30
2022-09-20T15:06:50.867Z,1.90
2022-09-20T15:09:20.790Z,2.00
2022-09-20T15:12:13.890Z,3.70
2022-09-20T15:14:42.361Z,4.00
2022-09-20T15:17:15.641Z,2.00
2022-09-20T15:19:47.831Z,3.70
2022-09-20T15:22:16.579Z,2.20
2022-09-20T15:24:44.388Z,2.70
2022-09-20T15:27:12.928Z,2.90
2022-09-20T15:29:40.789Z,2.60
2022-09-20T15:32:11.033Z,3.70
2022-09-20T15:34:38.860Z,5.20
2022-09-20T15:37:06.834Z,2.50
2022-09-20T15:39:34.696Z,3.60
2022-09-20T15:42:03.396Z,6.30
2022-09-20T15:44:32.842Z,4.70
2022-09-20T15:47:01.657Z,3.30
2022-09-20T15:49:31.289Z,3.90
2022-09-20T15:51:59.210Z,4.60
2022-09-20T15:54:26.973Z,4.30
2022-09-20T15:56:54.850Z,3.30
2022-09-20T15:59:23.592Z,2.60
2022-09-20T16:01:51.727Z,2.30
2022-09-20T16:04:20.683Z,4.60
2022-09-20T16:06:50.251Z,3.10
2022-09-20T16:09:19.275Z,2.80
2022-09-20T16:11:48.631Z,3.10
2022-09-20T16:14:16.645Z,2.40
2022-09-20T16:16:44.634Z,4.50
2022-09-20T16:19:20.325Z,3.60
2022-09-20T16:21:58.125Z,2.40
2022-09-20T16:24:36.160Z,5.80
2022-09-20T16:27:06.967Z,2.40
2022-09-20T16:29:35.070Z,3.80
2022-09-20T16:32:03.917Z,4.10
2022-09-20T16:34:34.414Z,4.10
2022-09-20T16:37:12.092Z,4.30
2022-09-20T16:39:41.122Z,4.80
2022-09-20T16:42:11.325Z,4.90
2022-09-20T16:44:43.154Z,3.40
2022-09-20T16:47:22.038Z,4.80
2022-09-20T16:49:50.653Z,3.90
2022-09-20T16:52:18.954Z,3.90
2022-09-20T16:54:46.853Z,5.10
2022-09-20T16:57:15.860Z,4.10
2022-09-20T16:59:44.384Z,4.70
2022-09-20T17:02:13.339Z,4.10
2022-09-20T17:04:43.711Z,5.70
2022-09-20T17:07:11.813Z,6.20
2022-09-20T17:09:39.601Z,8.30
2022-09-20T17:12:11.175Z,6.70
2022-09-20T17:14:41.303Z,7.40
2022-09-20T17:17:10.502Z,14.50
2022-09-20T17:19:38.300Z,18.10
2022-09-20T17:22:09.197Z,18.80
2022-09-20T17:24:37.070Z,16.70
2022-09-20T17:27:05.288Z,12.90
2022-09-20T17:29:33.188Z,12.00
2022-09-20T17:32:01.292Z,15.80
2022-09-20T17:34:30.095Z,9.90
2022-09-20T17:36:58.130Z,8.90
2022-09-20T17:39:26.184Z,8.50
2022-09-20T17:41:54.257Z,9.00
2022-09-20T17:44:22.180Z,10.70
2022-09-20T17:46:52.367Z,41.30
2022-09-20T17:49:22.105Z,35.40
2022-09-20T17:51:52.564Z,90.70
2022-09-20T17:54:26.354Z,122.90
2022-09-20T17:56:56.256Z,64.40
2022-09-20T17:59:24.930Z,32.60
2022-09-20T18:01:54.519Z,13.00
2022-09-20T18:04:24.780Z,17.40
2022-09-20T18:06:55.006Z,11.90
2022-09-20T18:09:27.153Z,14.70
2022-09-20T18:11:56.124Z,14.00
2022-09-20T18:14:27.615Z,11.00
2022-09-20T18:17:01.551Z,9.10
2022-09-20T18:19:34.052Z,9.00
2022-09-20T18:22:03.401Z,7.70
2022-09-20T18:24:32.245Z,7.80
2022-09-20T18:27:01.137Z,10.80
2022-09-20T18:29:29.604Z,6.60
2022-09-20T18:31:59.912Z,7.30
2022-09-20T18:34:32.108Z,7.20
2022-09-20T18:37:01.350Z,8.30
2022-09-20T18:39:37.617Z,9.20
2022-09-20T18:42:09.260Z,6.10
2022-09-20T18:44:37.288Z,12.80
2022-09-20T18:47:05.982Z,12.50
2022-09-20T18:49:34.488Z,11.30
2022-09-20T18:52:03.108Z,7.60
2022-09-20T18:54:33.564Z,9.40
2022-09-20T18:57:02.245Z,8.90
2022-09-20T18:59:30.323Z,9.40
2022-09-20T19:02:23.607Z,8.30
2022-09-20T19:04:52.024Z,9.50
2022-09-20T19:07:50.425Z,11.60
2022-09-20T19:10:46.037Z,9.60
2022-09-20T19:13:25.967Z,9.90
2022-09-20T19:16:05.628Z,10.40
2022-09-20T19:18:59.180Z,11.20
2022-09-20T19:21:52.247Z,10.10
2022-09-20T19:24:50.596Z,9.80
2022-09-20T19:27:18.707Z,9.10
2022-09-20T19:29:46.851Z,10.20
2022-09-20T19:32:21.424Z,10.00
2022-09-20T19:34:51.709Z,8.50
2022-09-20T19:37:22.491Z,24.10
2022-09-20T19:39:56.212Z,91.30
2022-09-20T19:42:39.293Z,81.80
2022-09-20T19:45:28.998Z,71.80
2022-09-20T19:48:09.358Z,93.90
2022-09-20T19:50:46.956Z,65.90
2022-09-20T19:53:17.453Z,44.60
2022-09-20T19:55:57.148Z,33.50
2022-09-20T19:58:25.772Z,22.90
2022-09-20T20:00:53.896Z,20.70
2022-09-20T20:03:26.240Z,17.20
2022-09-20T20:06:04.546Z,17.90
2022-09-20T20:08:41.943Z,12.90
2022-09-20T20:11:28.281Z,7.80
2022-09-20T20:14:18.117Z,8.50
2022-09-20T20:17:01.337Z,6.70
2022-09-20T20:19:40.996Z,5.70
2022-09-20T20:22:18.024Z,6.40
2022-09-20T20:24:53.331Z,5.10
2022-09-20T20:27:21.413Z,7.50
2022-09-20T20:29:49.739Z,6.50
2022-09-20T20:32:17.776Z,8.20
2022-09-20T20:34:47.014Z,5.30
2022-09-20T20:37:16.191Z,4.40
2022-09-20T20:39:44.055Z,6.20
2022-09-20T20:42:13.015Z,6.90
2022-09-20T20:44:41.393Z,5.00
2022-09-20T20:47:09.223Z,5.80
2022-09-20T20:49:37.287Z,6.40
2022-09-20T20:52:05.861Z,4.60
2022-09-20T20:54:33.739Z,7.80
2022-09-20T20:57:03.345Z,9.80
2022-09-20T20:59:31.213Z,6.00
2022-09-20T21:02:03.475Z,6.00
2022-09-20T21:04:34.094Z,7.40
2022-09-20T21:07:02.015Z,6.80
2022-09-20T21:09:29.752Z,10.10
2022-09-20T21:11:57.951Z,6.40
2022-09-20T21:14:25.840Z,7.30
2022-09-20T21:16:53.712Z,5.20
2022-09-20T21:19:22.488Z,5.50
2022-09-20T21:21:50.257Z,6.20
2022-09-20T21:24:18.177Z,7.00
2022-09-20T21:26:46.911Z,5.60
2022-09-20T21:29:16.379Z,7.10
2022-09-20T21:31:46.848Z,6.60
2022-09-20T21:34:16.199Z,5.90
2022-09-20T21:36:44.915Z,6.40
2022-09-20T21:39:13.233Z,8.20
2022-09-20T21:41:41.508Z,6.50
2022-09-20T21:44:12.405Z,7.10
2022-09-20T21:46:42.184Z,8.40
2022-09-20T21:49:11.931Z,7.40
2022-09-20T21:51:45.409Z,6.30
2022-09-20T21:54:13.340Z,6.00
2022-09-20T21:56:41.617Z,4.60
2022-09-20T21:59:10.007Z,4.50
2022-09-20T22:01:40.513Z,5.10
2022-09-20T22:04:12.473Z,5.30
2022-09-20T22:06:42.912Z,4.30
2022-09-20T22:09:16.267Z,8.00
2022-09-20T22:11:46.561Z,4.10
2022-09-20T22:14:16.363Z,6.00
2022-09-20T22:16:45.871Z,5.40
2022-09-20T22:19:17.102Z,5.80
2022-09-20T22:21:48.080Z,6.00
2022-09-20T22:24:17.422Z,4.90
2022-09-20T22:26:50.814Z,4.80
2022-09-20T22:29:19.196Z,3.90
2022-09-20T22:31:50.357Z,4.30
2022-09-20T22:34:21.176Z,6.10
2022-09-20T22:36:49.393Z,7.90
2022-09-20T22:39:17.535Z,4.60
2022-09-20T22:41:48.120Z,5.80
2022-09-20T22:44:16.648Z,4.50
2022-09-20T22:46:44.425Z,6.60
2022-09-20T22:49:12.466Z,6.20
2022-09-20T22:51:40.323Z,4.80
2022-09-20T22:54:10.778Z,4.60
2022-09-20T22:56:41.365Z,9.40
2022-09-20T22:59:14.332Z,5.60
2022-09-20T23:01:45.053Z,5.40
2022-09-20T23:04:17.177Z,6.20
2022-09-20T23:06:48.026Z,6.60
2022-09-20T23:09:18.353Z,7.20
2022-09-20T23:11:47.095Z,20.40
2022-09-20T23:14:17.968Z,10.10
2022-09-20T23:16:47.052Z,24.80
2022-09-20T23:19:15.648Z,9.00
2022-09-20T23:21:44.454Z,6.20
2022-09-20T23:24:14.817Z,9.60
2022-09-20T23:26:44.059Z,12.50
2022-09-20T23:29:14.480Z,12.20
2022-09-20T23:31:46.351Z,9.60
2022-09-20T23:34:16.708Z,9.90
2022-09-20T23:36:45.274Z,5.80
2022-09-20T23:39:13.769Z,6.10
2022-09-20T23:41:43.244Z,5.80
2022-09-20T23:44:13.925Z,5.60
2022-09-20T23:46:41.704Z,5.00
2022-09-20T23:49:09.592Z,5.70
2022-09-20T23:51:37.848Z,5.10
2022-09-20T23:54:06.006Z,4.50
2022-09-20T23:56:34.114Z,5.00
2022-09-20T23:59:01.908Z,10.50
